Time;durP1;ratioP1;P1;durP2;ratioP2;P2;SDS_P1;SDS_P2;PMS_P1;PMS_P2;Temp;Humidity;BMP_temperature;BMP_pressure;BME280_temperature;BME280_humidity;BME280_pressure;Samples;Min_cycle;Max_cycle;Signal;HPM_P1;HPM_P2
2022/04/20 00:00:35;;;;;;;12.40;8.87;;;2.70;96.30;;;;;;4992880;28;20457;-70
2022/04/20 00:03:02;;;;;;;10.00;7.13;;;2.70;96.40;;;;;;4993234;28;20433;-70
2022/04/20 00:05:32;;;;;;;8.93;7.63;;;2.70;96.30;;;;;;4976552;28;20751;-70
2022/04/20 00:07:57;;;;;;;8.70;7.47;;;2.60;96.30;;;;;;4962165;28;20497;-70
2022/04/20 00:10:23;;;;;;;9.63;8.10;;;2.50;96.20;;;;;;4977317;28;20529;-69
2022/04/20 00:12:49;;;;;;;10.23;7.83;;;2.50;96.30;;;;;;4993325;28;20196;-69
2022/04/20 00:15:14;;;;;;;9.57;7.70;;;2.40;96.10;;;;;;4977091;28;20200;-69
2022/04/20 00:17:40;;;;;;;9.00;6.67;;;2.30;96.20;;;;;;4960634;28;20190;-69
2022/04/20 00:20:07;;;;;;;7.97;6.97;;;2.30;96.20;;;;;;4977051;28;20183;-69
2022/04/20 00:22:32;;;;;;;8.63;6.80;;;2.30;96.10;;;;;;4976932;28;20235;-70
2022/04/20 00:24:58;;;;;;;8.80;6.73;;;2.30;96.20;;;;;;4976938;28;20477;-70
2022/04/20 00:27:24;;;;;;;7.80;6.80;;;2.30;96.20;;;;;;4977056;28;20200;-72
2022/04/20 00:29:49;;;;;;;6.67;5.97;;;2.20;96.20;;;;;;4984935;28;20224;-72
2022/04/20 00:32:15;;;;;;;8.70;7.13;;;2.20;96.30;;;;;;4981586;28;20191;-72
2022/04/20 00:34:41;;;;;;;8.63;7.27;;;2.10;96.20;;;;;;4966725;28;20191;-72
2022/04/20 00:37:06;;;;;;;7.97;7.17;;;2.10;96.10;;;;;;4980523;28;20196;-72
2022/04/20 00:39:33;;;;;;;9.20;6.93;;;2.10;96.20;;;;;;4979723;28;20199;-71
2022/04/20 00:41:58;;;;;;;10.23;7.30;;;2.10;96.10;;;;;;4996202;28;20200;-70
2022/04/20 00:44:25;;;;;;;8.90;6.83;;;2.00;96.30;;;;;;4996252;28;20426;-70
2022/04/20 00:46:52;;;;;;;7.63;6.77;;;2.00;96.30;;;;;;4980113;28;20264;-70
2022/04/20 00:49:19;;;;;;;8.73;6.63;;;2.00;96.10;;;;;;4995834;28;20461;-70
2022/04/20 00:51:53;;;;;;;7.60;6.57;;;2.00;96.30;;;;;;4980065;28;20414;-70
2022/04/20 00:54:19;;;;;;;8.80;6.77;;;1.90;96.20;;;;;;4995871;28;20434;-69
2022/04/20 00:56:45;;;;;;;7.30;6.33;;;1.90;96.30;;;;;;4996918;28;20414;-69
2022/04/20 00:59:12;;;;;;;9.73;7.40;;;1.90;96.30;;;;;;4979801;28;20500;-69
2022/04/20 01:01:38;;;;;;;7.27;6.33;;;1.90;96.30;;;;;;4979924;28;20218;-69
2022/04/20 01:04:04;;;;;;;8.57;7.37;;;1.80;96.30;;;;;;5009715;28;20452;-69
2022/04/20 01:06:30;;;;;;;9.57;7.83;;;1.90;96.30;;;;;;4981709;28;20188;-69
2022/04/20 01:08:55;;;;;;;10.23;7.60;;;1.80;96.20;;;;;;4979921;28;20204;-69
2022/04/20 01:11:22;;;;;;;9.73;6.83;;;1.80;96.30;;;;;;4980079;28;20189;-69
2022/04/20 01:13:48;;;;;;;8.60;7.30;;;1.80;96.30;;;;;;4979817;28;20184;-68
2022/04/20 01:16:14;;;;;;;9.73;7.43;;;1.80;96.30;;;;;;4979624;28;20434;-69
2022/04/20 01:18:43;;;;;;;8.83;7.43;;;1.80;96.20;;;;;;4979851;28;20294;-69
2022/04/20 01:21:12;;;;;;;10.47;7.37;;;1.70;96.20;;;;;;4979299;28;20182;-69
2022/04/20 01:23:38;;;;;;;8.97;6.77;;;1.70;96.20;;;;;;4979586;28;20430;-69
2022/04/20 01:26:08;;;;;;;14.67;7.20;;;1.70;96.30;;;;;;4979237;28;20442;-68
2022/04/20 01:28:35;;;;;;;13.60;8.23;;;1.70;96.30;;;;;;4994948;28;20534;-68
2022/04/20 01:31:02;;;;;;;9.07;8.13;;;1.70;96.20;;;;;;4979064;28;20433;-68
2022/04/20 01:33:28;;;;;;;9.20;7.57;;;1.60;96.30;;;;;;4979589;28;20421;-69
2022/04/20 01:35:53;;;;;;;11.07;7.87;;;1.60;96.30;;;;;;4978331;28;20434;-68
2022/04/20 01:38:19;;;;;;;13.03;8.10;;;1.70;96.40;;;;;;4978987;28;20173;-69
2022/04/20 01:40:45;;;;;;;9.37;7.93;;;1.70;96.40;;;;;;4978500;28;20280;-69
2022/04/20 01:43:11;;;;;;;10.10;7.67;;;1.60;96.30;;;;;;4979137;28;20191;-68
2022/04/20 01:45:37;;;;;;;10.70;7.80;;;1.60;96.30;;;;;;4979079;28;20195;-68
2022/04/20 01:48:03;;;;;;;8.50;6.23;;;1.70;96.40;;;;;;4978622;28;20248;-68
2022/04/20 01:50:28;;;;;;;9.30;7.10;;;1.60;96.30;;;;;;4979141;28;20188;-68
2022/04/20 01:52:54;;;;;;;9.77;7.43;;;1.70;96.30;;;;;;4979174;28;20184;-68
2022/04/20 01:55:20;;;;;;;10.30;7.50;;;1.70;96.50;;;;;;4979660;28;20191;-68
2022/04/20 01:57:46;;;;;;;10.93;7.17;;;1.60;96.30;;;;;;4974485;28;20201;-68
2022/04/20 02:00:12;;;;;;;9.00;7.53;;;1.60;96.40;;;;;;4970050;28;20207;-69
2022/04/20 02:02:38;;;;;;;8.93;6.40;;;1.60;96.30;;;;;;4978771;28;20203;-70
2022/04/20 02:05:09;;;;;;;10.30;8.00;;;1.50;96.20;;;;;;4995100;28;20411;-70
2022/04/20 02:07:35;;;;;;;12.70;8.07;;;1.50;96.40;;;;;;4997038;28;20412;-70
2022/04/20 02:10:02;;;;;;;10.50;8.00;;;1.50;96.30;;;;;;5014800;28;20511;-70
2022/04/20 02:12:28;;;;;;;9.67;6.83;;;1.70;96.50;;;;;;5014073;28;20245;-70
2022/04/20 02:14:54;;;;;;;10.90;7.63;;;1.70;96.60;;;;;;4994720;28;20419;-70
2022/04/20 02:17:19;;;;;;;10.60;8.57;;;1.70;96.60;;;;;;4994541;28;20172;-70
2022/04/20 02:19:45;;;;;;;9.37;8.07;;;1.70;96.60;;;;;;4968616;28;20250;-68
2022/04/20 02:22:11;;;;;;;8.87;7.67;;;1.80;96.60;;;;;;4958800;28;20265;-68
2022/04/20 02:24:37;;;;;;;14.30;8.47;;;1.80;96.60;;;;;;4971059;28;20241;-68
2022/04/20 02:27:03;;;;;;;10.73;9.03;;;1.80;96.70;;;;;;4958957;28;20192;-68
2022/04/20 02:29:28;;;;;;;10.97;8.17;;;1.80;96.70;;;;;;4972592;28;20223;-68
2022/04/20 02:31:54;;;;;;;8.87;7.47;;;1.80;96.60;;;;;;4978901;28;20203;-68
2022/04/20 02:34:20;;;;;;;11.90;8.77;;;1.80;96.60;;;;;;4982759;28;20197;-68
2022/04/20 02:36:46;;;;;;;10.30;7.43;;;1.80;96.50;;;;;;4961969;28;20198;-68
2022/04/20 02:39:11;;;;;;;10.90;8.00;;;1.90;96.60;;;;;;4998017;28;20199;-68
2022/04/20 02:41:38;;;;;;;15.40;9.20;;;1.90;96.60;;;;;;4973952;28;20195;-68
2022/04/20 02:44:07;;;;;;;8.30;7.03;;;1.80;96.50;;;;;;4994166;28;20188;-68
2022/04/20 02:46:34;;;;;;;11.10;7.40;;;1.90;96.60;;;;;;4978184;28;20420;-68
2022/04/20 02:49:00;;;;;;;8.50;6.97;;;1.90;96.50;;;;;;4993935;28;20475;-68
2022/04/20 02:51:26;;;;;;;9.93;7.80;;;1.80;96.50;;;;;;4977986;28;20434;-68
2022/04/20 02:53:52;;;;;;;8.97;7.27;;;1.90;96.50;;;;;;4994298;28;20500;-67
2022/04/20 02:56:18;;;;;;;8.33;7.27;;;1.80;96.50;;;;;;4982702;28;20435;-68
2022/04/20 02:58:44;;;;;;;9.70;7.67;;;1.80;96.50;;;;;;4978230;28;20196;-67
2022/04/20 03:01:09;;;;;;;11.27;7.63;;;1.80;96.50;;;;;;4978137;28;20439;-67
2022/04/20 03:03:35;;;;;;;9.40;7.43;;;1.80;96.40;;;;;;4977965;28;20257;-68
2022/04/20 03:06:01;;;;;;;9.77;7.80;;;1.80;96.40;;;;;;4978178;28;20184;-70
2022/04/20 03:08:27;;;;;;;8.73;7.00;;;1.70;96.40;;;;;;4970261;28;20227;-65
2022/04/20 03:10:53;;;;;;;9.70;7.63;;;1.70;96.50;;;;;;4993745;28;20188;-65
2022/04/20 03:13:19;;;;;;;9.00;7.37;;;1.70;96.40;;;;;;4978148;28;20449;-66
2022/04/20 03:15:46;;;;;;;10.20;7.50;;;1.70;96.50;;;;;;4975620;28;20458;-66
2022/04/20 03:18:12;;;;;;;8.80;7.43;;;1.70;96.50;;;;;;4958709;28;20205;-66
2022/04/20 03:20:38;;;;;;;14.00;7.83;;;1.70;96.50;;;;;;4942417;28;20454;-65
2022/04/20 03:23:06;;;;;;;10.97;8.03;;;1.70;96.50;;;;;;4974456;28;20442;-66
2022/04/20 03:25:31;;;;;;;13.87;8.50;;;1.70;96.60;;;;;;4973836;28;20228;-65
2022/04/20 03:27:57;;;;;;;9.97;8.17;;;1.70;96.60;;;;;;4974346;28;20437;-65
2022/04/20 03:30:23;;;;;;;10.57;8.30;;;1.70;96.60;;;;;;4975614;28;20193;-66
2022/04/20 03:32:49;;;;;;;9.83;7.87;;;1.70;96.50;;;;;;4967618;28;20188;-65
2022/04/20 03:35:16;;;;;;;9.50;7.40;;;1.80;96.60;;;;;;4965401;28;20195;-65
2022/04/20 03:37:42;;;;;;;9.43;7.20;;;1.70;96.60;;;;;;4976576;28;20192;-66
2022/04/20 03:40:08;;;;;;;9.90;7.50;;;1.70;96.60;;;;;;4973271;28;20425;-66
2022/04/20 03:42:34;;;;;;;9.37;6.30;;;1.60;96.50;;;;;;4999586;28;20186;-66
2022/04/20 03:45:01;;;;;;;9.37;7.83;;;1.60;96.40;;;;;;4992921;28;20498;-62
2022/04/20 03:47:26;;;;;;;10.47;8.47;;;1.60;96.40;;;;;;4961911;28;20456;-61
2022/04/20 03:49:52;;;;;;;11.70;8.33;;;1.50;96.20;;;;;;4964146;28;20561;-61
2022/04/20 03:52:18;;;;;;;12.17;8.07;;;1.50;96.30;;;;;;4967069;28;20212;-61
2022/04/20 03:54:44;;;;;;;9.30;7.97;;;1.50;96.20;;;;;;4960139;28;20303;-61
2022/04/20 03:57:10;;;;;;;17.17;8.37;;;1.50;96.30;;;;;;4973900;28;20187;-61
2022/04/20 03:59:37;;;;;;;10.70;7.40;;;1.40;96.30;;;;;;4958489;28;20193;-61
2022/04/20 04:02:06;;;;;;;11.87;7.87;;;1.40;96.20;;;;;;4957754;28;20434;-61
2022/04/20 04:04:33;;;;;;;8.20;7.10;;;1.30;96.20;;;;;;4963630;28;20445;-61
2022/04/20 04:06:59;;;;;;;12.80;8.20;;;1.30;96.30;;;;;;4946810;28;20426;-61
2022/04/20 04:09:25;;;;;;;9.70;7.40;;;1.30;96.20;;;;;;4973865;28;20518;-61
2022/04/20 04:11:51;;;;;;;8.77;6.60;;;1.30;96.20;;;;;;4968493;28;20477;-61
2022/04/20 04:14:17;;;;;;;10.23;7.43;;;1.30;96.20;;;;;;4969846;28;20431;-61
2022/04/20 04:16:44;;;;;;;12.10;7.67;;;1.30;96.20;;;;;;4961479;28;20279;-61
2022/04/20 04:19:11;;;;;;;12.83;8.13;;;1.20;96.30;;;;;;4971711;28;20484;-61
2022/04/20 04:21:39;;;;;;;11.33;7.40;;;1.10;96.10;;;;;;4959075;28;20578;-61
2022/04/20 04:24:06;;;;;;;9.10;7.13;;;1.20;96.20;;;;;;4972489;28;20497;-61
2022/04/20 04:26:32;;;;;;;10.67;7.77;;;1.20;96.20;;;;;;4977284;28;20435;-61
2022/04/20 04:28:58;;;;;;;8.97;7.47;;;1.20;96.20;;;;;;4985223;28;20501;-61
2022/04/20 04:31:24;;;;;;;12.27;8.93;;;1.10;96.20;;;;;;4980218;28;20419;-61
2022/04/20 04:33:50;;;;;;;12.63;8.73;;;1.10;96.20;;;;;;4977802;28;20453;-61
2022/04/20 04:36:16;;;;;;;11.17;8.47;;;1.10;96.20;;;;;;5007514;28;20406;-61
2022/04/20 04:38:41;;;;;;;12.77;8.13;;;1.10;96.30;;;;;;4970883;28;20202;-61
2022/04/20 04:41:07;;;;;;;17.17;9.30;;;1.10;96.40;;;;;;4974382;28;20219;-62
2022/04/20 04:43:33;;;;;;;12.27;9.07;;;1.10;96.30;;;;;;4997433;28;20188;-61
2022/04/20 04:48:43;;;;;;;12.13;8.87;;;1.10;96.30;;;;;;4979977;28;20215;-61
2022/04/20 04:51:10;;;;;;;11.93;7.87;;;1.10;96.30;;;;;;4964701;28;20430;-61
2022/04/20 04:53:37;;;;;;;11.90;9.80;;;1.10;96.50;;;;;;4987857;28;20464;-61
2022/04/20 04:56:03;;;;;;;11.80;8.90;;;1.10;96.40;;;;;;4979695;28;20437;-61
2022/04/20 04:58:28;;;;;;;11.07;7.40;;;1.10;96.50;;;;;;4993948;28;20422;-61
2022/04/20 05:00:54;;;;;;;13.13;9.17;;;1.20;96.50;;;;;;4989995;28;20199;-64
2022/04/20 05:03:20;;;;;;;11.03;9.33;;;1.20;96.50;;;;;;4958681;28;20197;-61
2022/04/20 05:05:46;;;;;;;15.33;10.20;;;1.20;96.50;;;;;;4958048;28;20610;-65
2022/04/20 05:08:12;;;;;;;13.80;9.57;;;1.20;96.50;;;;;;4978902;28;20188;-61
2022/04/20 05:10:38;;;;;;;11.50;8.13;;;1.20;96.50;;;;;;4985305;28;20488;-61
2022/04/20 05:13:05;;;;;;;12.20;9.50;;;1.30;96.50;;;;;;4994297;28;20180;-61
2022/04/20 05:15:31;;;;;;;13.43;10.17;;;1.30;96.50;;;;;;4971506;28;20279;-60
2022/04/20 05:17:57;;;;;;;13.50;9.13;;;1.30;96.60;;;;;;4947375;28;20524;-60
2022/04/20 05:20:22;;;;;;;12.90;10.37;;;1.30;96.50;;;;;;4997507;28;20199;-60
2022/04/20 05:22:49;;;;;;;13.13;10.03;;;1.40;96.60;;;;;;4995977;28;20203;-60
2022/04/20 05:25:15;;;;;;;11.90;9.23;;;1.40;96.60;;;;;;4977030;28;20319;-60
2022/04/20 05:27:41;;;;;;;16.00;11.03;;;1.40;96.70;;;;;;5003414;28;20432;-60
2022/04/20 05:30:09;;;;;;;14.53;10.30;;;1.40;96.70;;;;;;4974303;28;20616;-60
2022/04/20 05:32:35;;;;;;;13.47;10.17;;;1.40;96.70;;;;;;5013724;28;20231;-60
2022/04/20 05:35:01;;;;;;;12.97;9.23;;;1.50;96.80;;;;;;4978313;28;20446;-60
2022/04/20 05:42:56;;;;;;;13.10;9.63;;;1.60;96.80;;;;;;4982528;28;20430;-60
2022/04/20 05:45:22;;;;;;;14.57;10.77;;;1.60;96.80;;;;;;4960144;28;20438;-60
2022/04/20 05:47:48;;;;;;;10.10;8.43;;;1.60;96.80;;;;;;5013208;28;20428;-60
2022/04/20 05:50:14;;;;;;;16.23;11.40;;;1.60;96.80;;;;;;5010424;28;20230;-60
2022/04/20 05:52:40;;;;;;;13.00;9.77;;;1.70;96.90;;;;;;4973840;28;20443;-60
2022/04/20 05:55:07;;;;;;;15.00;9.60;;;1.70;96.90;;;;;;4997252;28;20409;-60
2022/04/20 05:57:33;;;;;;;18.50;10.37;;;1.80;96.90;;;;;;4997238;28;20257;-60
2022/04/20 05:59:59;;;;;;;15.87;10.20;;;1.80;96.90;;;;;;4997105;28;20416;-60
2022/04/20 06:02:25;;;;;;;16.40;11.57;;;1.80;96.90;;;;;;4982004;28;20533;-60
2022/04/20 06:04:51;;;;;;;12.00;9.03;;;1.90;96.90;;;;;;4993028;28;20414;-60
2022/04/20 06:07:17;;;;;;;13.93;10.30;;;1.90;96.90;;;;;;4991566;28;20430;-60
2022/04/20 06:09:43;;;;;;;15.47;11.10;;;2.00;97.00;;;;;;4975187;28;20509;-60
2022/04/20 06:12:09;;;;;;;14.83;11.17;;;2.10;97.00;;;;;;5008215;28;20479;-60
2022/04/20 06:14:35;;;;;;;16.13;11.10;;;2.10;97.00;;;;;;4976067;28;20219;-60
2022/04/20 06:17:00;;;;;;;11.67;8.60;;;2.20;97.00;;;;;;4986330;28;20239;-60
2022/04/20 06:19:26;;;;;;;14.70;10.33;;;2.20;97.00;;;;;;4957829;28;20275;-60
2022/04/20 06:21:51;;;;;;;16.53;11.37;;;2.30;97.00;;;;;;4972979;28;20245;-60
2022/04/20 06:24:17;;;;;;;12.53;10.00;;;2.30;97.00;;;;;;4957939;28;20247;-60
2022/04/20 06:26:43;;;;;;;14.43;10.93;;;2.30;97.10;;;;;;4970045;28;20192;-61
2022/04/20 06:29:08;;;;;;;18.30;11.90;;;2.40;97.10;;;;;;4976431;28;20239;-61
2022/04/20 06:31:35;;;;;;;13.40;10.80;;;2.40;97.10;;;;;;4974327;28;20196;-61
2022/04/20 06:34:02;;;;;;;14.43;10.17;;;2.60;97.10;;;;;;4954290;28;20200;-61
2022/04/20 06:36:28;;;;;;;14.17;11.27;;;2.60;97.10;;;;;;5011488;28;20474;-61
2022/04/20 06:38:54;;;;;;;13.00;10.10;;;2.60;97.20;;;;;;4974254;28;20439;-61
2022/04/20 06:41:20;;;;;;;14.13;10.80;;;2.60;97.10;;;;;;4975475;28;20458;-61
2022/04/20 06:43:46;;;;;;;12.37;9.97;;;2.70;97.10;;;;;;4979250;28;20437;-61
2022/04/20 06:46:11;;;;;;;11.13;9.17;;;2.80;97.20;;;;;;4973505;28;20427;-61
2022/04/20 06:48:37;;;;;;;13.63;10.20;;;2.80;97.20;;;;;;4957277;28;20243;-61
2022/04/20 06:51:03;;;;;;;15.93;11.70;;;2.80;97.20;;;;;;4957229;28;20217;-61
2022/04/20 06:58:58;;;;;;;12.33;10.13;;;2.90;97.20;;;;;;4972447;28;20454;-61
2022/04/20 07:01:23;;;;;;;14.10;11.10;;;3.00;97.30;;;;;;4972976;28;20431;-61
2022/04/20 07:03:49;;;;;;;18.53;12.43;;;3.10;97.30;;;;;;4959855;28;20246;-61
2022/04/20 07:06:15;;;;;;;14.30;11.37;;;3.10;97.30;;;;;;4992961;28;20180;-61
2022/04/20 07:08:41;;;;;;;17.07;11.90;;;3.20;97.30;;;;;;4993391;28;20302;-61
2022/04/20 07:11:07;;;;;;;13.17;11.07;;;3.30;97.40;;;;;;4976824;28;20422;-61
2022/04/20 07:13:33;;;;;;;14.80;11.80;;;3.50;97.30;;;;;;4992328;28;20184;-61
2022/04/20 07:15:59;;;;;;;16.53;11.73;;;3.60;96.80;;;;;;4976188;28;20195;-61
2022/04/20 07:18:24;;;;;;;15.30;12.13;;;3.60;96.30;;;;;;4990727;28;20653;-61
2022/04/20 07:20:50;;;;;;;15.63;11.40;;;3.60;96.10;;;;;;4989028;28;20200;-61
2022/04/20 07:23:16;;;;;;;15.13;11.50;;;3.60;96.40;;;;;;4957055;28;20189;-61
2022/04/20 07:25:42;;;;;;;15.20;12.20;;;3.70;96.60;;;;;;4956788;28;20596;-61
2022/04/20 07:28:08;;;;;;;14.43;11.20;;;3.80;96.60;;;;;;4957254;28;20202;-61
2022/04/20 07:30:35;;;;;;;15.73;11.50;;;3.80;96.50;;;;;;4989033;28;20183;-61
2022/04/20 07:33:01;;;;;;;14.43;11.70;;;3.90;96.50;;;;;;4989000;28;20417;-61
2022/04/20 07:35:28;;;;;;;15.60;10.13;;;3.90;96.40;;;;;;4974846;28;20453;-61
2022/04/20 07:37:54;;;;;;;12.73;9.87;;;4.00;96.60;;;;;;4964229;28;20517;-61
2022/04/20 07:40:19;;;;;;;12.70;9.83;;;4.10;96.10;;;;;;4988556;28;20493;-61
2022/04/20 07:42:45;;;;;;;12.07;10.13;;;4.10;96.40;;;;;;4979968;28;20191;-61
2022/04/20 07:45:11;;;;;;;11.63;9.40;;;4.20;96.60;;;;;;4979842;28;20196;-61
2022/04/20 07:47:37;;;;;;;12.50;8.80;;;4.20;96.70;;;;;;4975490;28;20184;-61
2022/04/20 07:50:19;;;;;;;12.50;9.60;;;4.30;96.80;;;;;;5000952;28;20464;-61
2022/04/20 07:52:50;;;;;;;11.33;8.63;;;4.30;97.00;;;;;;4999190;28;20188;-61
2022/04/20 07:55:27;;;;;;;13.37;9.17;;;4.40;97.00;;;;;;5021294;28;20434;-61
2022/04/20 07:57:56;;;;;;;9.70;8.40;;;4.50;97.10;;;;;;4994805;28;20439;-61
2022/04/20 08:00:22;;;;;;;11.23;9.23;;;4.50;97.20;;;;;;4987569;28;20522;-61
2022/04/20 08:02:49;;;;;;;11.30;8.83;;;4.60;97.20;;;;;;4975113;28;20426;-61
2022/04/20 08:05:17;;;;;;;12.43;9.00;;;4.70;97.30;;;;;;4975300;28;20449;-61
2022/04/20 08:07:44;;;;;;;11.53;8.07;;;4.70;97.30;;;;;;4978450;28;20556;-61
2022/04/20 08:10:11;;;;;;;11.30;9.30;;;4.80;97.30;;;;;;4966561;28;20556;-61
2022/04/20 08:12:41;;;;;;;12.93;9.70;;;4.80;97.30;;;;;;4959105;28;20414;-61
2022/04/20 08:15:09;;;;;;;10.87;9.77;;;4.80;97.20;;;;;;4978596;28;20505;-61
2022/04/20 08:17:35;;;;;;;10.90;8.60;;;4.90;96.90;;;;;;4978768;28;20429;-61
2022/04/20 08:20:02;;;;;;;11.23;8.27;;;5.00;95.80;;;;;;4978546;28;20428;-61
2022/04/20 08:22:28;;;;;;;12.73;8.13;;;5.10;96.20;;;;;;4995770;28;20445;-61
2022/04/20 08:24:54;;;;;;;9.80;8.80;;;5.10;95.90;;;;;;4962490;28;20520;-61
2022/04/20 08:27:21;;;;;;;12.97;8.63;;;5.20;96.30;;;;;;4979284;28;20283;-61
2022/04/20 08:29:47;;;;;;;7.93;7.13;;;5.20;96.40;;;;;;4991294;28;20479;-61
2022/04/20 08:32:17;;;;;;;10.07;8.30;;;5.30;95.60;;;;;;4975986;28;20422;-61
2022/04/20 08:34:43;;;;;;;9.87;7.90;;;5.30;96.20;;;;;;4982978;28;20440;-61
2022/04/20 08:37:10;;;;;;;11.37;8.80;;;5.30;96.40;;;;;;4995202;28;20418;-61
2022/04/20 08:39:37;;;;;;;10.17;8.80;;;5.40;96.30;;;;;;4977745;28;20465;-61
2022/04/20 08:42:04;;;;;;;12.23;10.10;;;5.40;96.50;;;;;;4976955;28;20490;-61
2022/04/20 08:44:31;;;;;;;9.10;8.00;;;5.50;95.50;;;;;;4972231;28;20449;-61
2022/04/20 08:47:02;;;;;;;9.23;7.90;;;5.60;95.70;;;;;;4978821;28;20422;-61
2022/04/20 08:49:28;;;;;;;10.37;9.23;;;5.60;96.20;;;;;;4993572;28;20557;-61
2022/04/20 08:54:39;;;;;;;9.63;8.37;;;5.80;96.40;;;;;;4993794;28;20219;-61
2022/04/20 08:57:18;;;;;;;10.13;8.10;;;5.80;94.50;;;;;;4978752;28;20430;-61
2022/04/20 08:59:49;;;;;;;10.20;9.13;;;5.80;95.00;;;;;;4986495;28;20485;-61
2022/04/20 09:02:24;;;;;;;9.27;8.23;;;5.90;93.10;;;;;;4975428;28;20446;-61
2022/04/20 09:04:50;;;;;;;10.03;8.90;;;5.90;93.60;;;;;;4960972;28;20461;-61
2022/04/20 09:07:17;;;;;;;12.17;9.43;;;6.00;93.80;;;;;;4978622;28;20516;-61
2022/04/20 09:09:44;;;;;;;15.03;8.63;;;6.00;93.40;;;;;;4977301;28;20457;-61
2022/04/20 09:12:24;;;;;;;9.57;8.57;;;6.10;91.00;;;;;;4977357;28;20429;-61
2022/04/20 09:14:51;;;;;;;9.97;8.33;;;6.20;88.90;;;;;;4993963;28;20441;-61
2022/04/20 09:17:22;;;;;;;9.80;7.90;;;6.30;90.80;;;;;;4994775;28;20468;-61
2022/04/20 09:19:53;;;;;;;8.90;8.00;;;6.30;91.30;;;;;;4983912;28;20449;-61
2022/04/20 09:22:23;;;;;;;8.93;8.03;;;6.40;91.10;;;;;;4974297;28;20427;-61
2022/04/20 09:25:00;;;;;;;9.10;7.53;;;6.40;89.60;;;;;;4962568;28;20567;-62
2022/04/20 09:27:27;;;;;;;8.63;7.63;;;6.60;88.10;;;;;;4959110;28;20419;-61
2022/04/20 09:29:56;;;;;;;10.20;8.03;;;6.70;89.10;;;;;;4981530;28;20461;-61
2022/04/20 09:32:42;;;;;;;8.50;7.70;;;6.70;90.50;;;;;;4995998;28;20421;-62
2022/04/20 09:35:13;;;;;;;9.23;8.20;;;6.80;91.50;;;;;;4992106;28;20488;-61
2022/04/20 09:37:42;;;;;;;8.23;7.40;;;6.90;91.50;;;;;;4992335;28;20449;-62
2022/04/20 09:40:13;;;;;;;7.97;6.80;;;7.00;87.80;;;;;;4993284;28;20441;-61
2022/04/20 09:43:21;;;;;;;8.10;7.30;;;7.20;77.70;;;;;;5005629;28;20434;-62
2022/04/20 09:49:03;;;;;;;7.03;6.23;;;7.10;80.80;;;;;;5007806;28;20558;-61
2022/04/20 09:51:40;;;;;;;6.60;5.80;;;7.30;80.00;;;;;;5012849;28;20500;-61
2022/04/20 09:54:27;;;;;;;7.90;5.87;;;7.30;84.20;;;;;;4997132;28;20419;-61
2022/04/20 09:57:13;;;;;;;6.70;6.10;;;7.30;83.80;;;;;;5006969;28;20429;-61
2022/04/20 10:00:00;;;;;;;9.53;5.47;;;7.60;83.30;;;;;;4994547;28;20418;-61
2022/04/20 10:02:30;;;;;;;5.33;4.83;;;7.80;77.50;;;;;;4994464;28;20438;-60
2022/04/20 10:04:57;;;;;;;7.27;6.57;;;8.30;72.50;;;;;;4995068;28;20421;-60
2022/04/20 10:07:23;;;;;;;5.77;5.27;;;8.30;76.40;;;;;;4978502;28;20461;-62
2022/04/20 10:09:48;;;;;;;5.90;5.40;;;8.30;79.90;;;;;;4994242;28;20458;-61
2022/04/20 10:12:16;;;;;;;10.20;6.00;;;8.30;79.80;;;;;;4978600;28;20425;-61
2022/04/20 10:17:34;;;;;;;5.80;5.30;;;8.60;71.90;;;;;;4994995;28;20464;-62
2022/04/20 10:20:02;;;;;;;6.63;5.30;;;8.60;74.70;;;;;;4994330;28;20520;-62
2022/04/20 10:22:30;;;;;;;7.23;5.30;;;8.60;72.20;;;;;;4978730;28;20422;-63
2022/04/20 10:24:58;;;;;;;6.10;5.50;;;8.80;72.10;;;;;;4978007;28;20482;-63
2022/04/20 10:27:27;;;;;;;5.43;4.90;;;8.80;72.00;;;;;;4994864;28;20425;-62
2022/04/20 10:30:07;;;;;;;5.90;5.30;;;8.90;69.00;;;;;;4994580;28;20472;-62
2022/04/20 10:33:06;;;;;;;6.07;5.47;;;8.90;68.50;;;;;;4988769;28;20490;-65
2022/04/20 10:35:52;;;;;;;5.40;4.90;;;8.80;72.70;;;;;;4990885;28;20411;-65
2022/04/20 10:38:18;;;;;;;5.50;5.00;;;8.70;75.00;;;;;;4966927;28;20431;-65
2022/04/20 10:41:03;;;;;;;5.63;5.13;;;8.80;75.80;;;;;;4978060;28;20246;-65
2022/04/20 10:43:30;;;;;;;6.23;5.13;;;8.90;77.10;;;;;;4993831;28;20467;-63
2022/04/20 10:46:16;;;;;;;6.23;5.07;;;9.00;73.00;;;;;;4977227;28;20425;-63
2022/04/20 10:48:45;;;;;;;4.53;4.13;;;9.20;71.90;;;;;;4993726;28;20208;-64
2022/04/20 10:51:15;;;;;;;5.27;4.77;;;9.20;70.40;;;;;;4993086;28;20193;-64
2022/04/20 10:53:43;;;;;;;4.47;4.07;;;9.40;63.50;;;;;;4993454;28;20422;-64
2022/04/20 10:56:09;;;;;;;5.00;4.50;;;9.40;64.90;;;;;;4960306;28;20528;-64
2022/04/20 10:58:35;;;;;;;5.93;5.00;;;9.30;62.30;;;;;;4981929;28;20200;-64
2022/04/20 11:01:11;;;;;;;4.83;4.33;;;9.40;66.60;;;;;;4962179;28;20193;-64
2022/04/20 11:04:06;;;;;;;4.90;4.40;;;9.50;67.50;;;;;;4993435;28;20184;-63
2022/04/20 11:07:15;;;;;;;5.53;4.73;;;9.80;63.00;;;;;;4982300;28;20227;-63
2022/04/20 11:09:49;;;;;;;6.07;4.80;;;10.00;61.00;;;;;;4986083;28;20216;-64
2022/04/20 11:21:06;;;;;;;4.67;4.27;;;9.80;65.10;;;;;;4934941;29;20665;-64
2022/04/20 11:24:07;;;;;;;5.63;4.90;;;10.00;67.80;;;;;;4969852;28;20191;-63
2022/04/20 11:26:35;;;;;;;6.73;5.00;;;10.20;63.30;;;;;;4979016;28;20196;-64
2022/04/20 11:29:16;;;;;;;5.07;4.47;;;10.20;64.30;;;;;;4993447;28;20212;-64
2022/04/20 11:31:48;;;;;;;4.80;4.33;;;10.30;64.90;;;;;;4993704;28;20192;-66
2022/04/20 11:34:18;;;;;;;4.80;4.40;;;10.50;61.90;;;;;;4993474;28;20208;-65
2022/04/20 11:36:53;;;;;;;6.20;5.00;;;10.70;54.80;;;;;;4994992;28;20192;-67
2022/04/20 11:39:21;;;;;;;5.27;4.77;;;10.90;56.80;;;;;;5009068;28;20203;-65
2022/04/20 11:41:55;;;;;;;4.17;3.77;;;10.90;58.40;;;;;;5005300;28;20205;-64
2022/04/20 11:44:29;;;;;;;5.03;4.37;;;10.80;60.00;;;;;;4957351;28;20201;-64
2022/04/20 11:47:01;;;;;;;5.00;4.17;;;10.90;55.80;;;;;;4974007;28;20280;-64
2022/04/20 11:49:55;;;;;;;4.43;4.03;;;11.10;60.00;;;;;;4991607;28;20212;-64
2022/04/20 11:52:21;;;;;;;5.80;3.73;;;11.60;58.60;;;;;;4990763;28;20193;-61
2022/04/20 11:54:47;;;;;;;4.67;4.27;;;11.80;54.80;;;;;;4973263;28;20190;-64
2022/04/20 11:57:15;;;;;;;5.10;4.27;;;12.10;58.30;;;;;;4973558;28;20268;-64
2022/04/20 11:59:49;;;;;;;5.93;4.60;;;12.50;56.70;;;;;;4992421;28;20188;-64
2022/04/20 12:02:16;;;;;;;4.50;4.10;;;12.70;55.00;;;;;;4977729;28;20185;-64
2022/04/20 12:04:43;;;;;;;4.60;3.30;;;12.90;56.20;;;;;;4992672;28;20193;-63
2022/04/20 12:07:09;;;;;;;4.13;3.73;;;13.20;54.00;;;;;;4977538;28;20279;-65
2022/04/20 12:09:39;;;;;;;6.90;3.90;;;13.60;50.70;;;;;;4992333;28;20235;-64
2022/04/20 12:12:07;;;;;;;3.90;3.30;;;13.90;49.70;;;;;;4993736;28;20173;-64
2022/04/20 12:14:34;;;;;;;4.27;3.90;;;14.10;48.80;;;;;;5001527;28;20195;-64
2022/04/20 12:17:16;;;;;;;3.73;3.33;;;14.60;51.80;;;;;;4977193;28;20191;-64
2022/04/20 12:19:42;;;;;;;4.13;3.47;;;14.90;51.20;;;;;;4976923;28;20215;-61
2022/04/20 12:22:09;;;;;;;3.63;3.27;;;15.50;48.60;;;;;;4974878;28;20218;-61
2022/04/20 12:24:37;;;;;;;4.03;3.67;;;16.20;43.90;;;;;;5007630;28;20239;-61
2022/04/20 12:27:04;;;;;;;3.70;3.40;;;16.60;42.40;;;;;;4976147;28;20230;-61
2022/04/20 12:29:33;;;;;;;4.00;3.70;;;17.10;40.60;;;;;;4976396;28;20232;-62
2022/04/20 12:32:00;;;;;;;4.00;3.60;;;16.80;41.90;;;;;;4989274;28;20180;-62
2022/04/20 12:34:28;;;;;;;3.43;3.13;;;16.30;41.00;;;;;;4996762;28;20191;-61
2022/04/20 12:36:59;;;;;;;3.70;3.40;;;16.70;42.30;;;;;;4999529;28;20239;-61
2022/04/20 12:39:36;;;;;;;3.70;3.40;;;17.10;41.70;;;;;;4977666;28;20188;-62
2022/04/20 12:42:10;;;;;;;3.50;3.20;;;17.90;43.10;;;;;;4976370;28;20197;-62
2022/04/20 12:45:02;;;;;;;3.53;3.23;;;18.80;37.70;;;;;;4984330;28;20189;-61
2022/04/20 12:47:28;;;;;;;4.10;3.67;;;19.20;36.20;;;;;;4990215;28;20264;-61
2022/04/20 12:49:53;;;;;;;3.33;3.13;;;19.30;34.80;;;;;;4986637;28;20287;-61
2022/04/20 12:52:27;;;;;;;3.80;2.93;;;19.10;33.50;;;;;;4995264;28;20197;-61
2022/04/20 12:54:55;;;;;;;3.67;2.80;;;18.80;33.90;;;;;;4995447;28;20205;-61
2022/04/20 13:03:02;;;;;;;3.10;2.90;;;20.30;30.80;;;;;;4987152;28;20187;-62
2022/04/20 13:05:37;;;;;;;3.23;2.93;;;20.90;33.60;;;;;;4972137;28;20184;-63
2022/04/20 13:08:08;;;;;;;3.70;2.40;;;22.10;31.10;;;;;;4991888;28;20187;-64
2022/04/20 13:10:38;;;;;;;4.70;2.40;;;23.60;30.00;;;;;;4963979;28;20216;-62
2022/04/20 13:13:04;;;;;;;2.50;2.30;;;24.90;25.50;;;;;;4994178;28;20185;-61
2022/04/20 13:15:30;;;;;;;3.10;2.90;;;25.30;26.50;;;;;;4958484;28;20200;-64
2022/04/20 13:17:57;;;;;;;3.23;2.40;;;27.20;25.30;;;;;;4966863;28;20201;-66
2022/04/20 13:20:25;;;;;;;2.73;2.53;;;27.80;25.60;;;;;;4977821;28;20188;-64
2022/04/20 13:22:52;;;;;;;2.40;2.07;;;27.80;25.40;;;;;;4982434;28;20268;-61
2022/04/20 13:28:02;;;;;;;2.90;2.60;;;29.20;23.20;;;;;;4982622;28;20244;-61
2022/04/20 13:30:38;;;;;;;2.80;2.60;;;30.30;21.20;;;;;;4986403;28;20215;-60
2022/04/20 13:33:05;;;;;;;3.03;2.83;;;29.00;20.70;;;;;;4978413;28;20235;-59